EJU18KE LIMC-LIEO
Flight info
| Callsign | EJU18KE |
|---|---|
| Flight time | 1h 10m |
| Altitude | 37000 |
| Route | ROBAS DCT EKPAL DCT TINKU DCT GOVGO DCT BATOX |
| Aircraft | A320/M-SDE2E3FGHIJ1RWXYZ/LB1 |
Departure
| Time | 2026-05-08 17:42 |
|---|---|
| Airport | Milan Malpensa International Airport (LIMC) |
Arrival
| Time | 2026-05-08 18:53 |
|---|---|
| Airport | Olbia Costa Smeralda Airport (LIEO) |
| Time | Latitude | Longitude | Altitude | Speed | Heading |
|---|---|---|---|---|---|
| 2026-05-08 16:55 | 45.64602 | 8.72199 | 776 ft | 0 kts | 79° |
| 2026-05-08 17:18 | 45.64602 | 8.72196 | 776 ft | 1 kts | 79° |
| 2026-05-08 17:18 | 45.64601 | 8.72174 | 776 ft | 2 kts | 95° |
| 2026-05-08 17:18 | 45.64603 | 8.72153 | 776 ft | 2 kts | 105° |
| 2026-05-08 17:19 | 45.64608 | 8.72133 | 776 ft | 2 kts | 117° |
| 2026-05-08 17:19 | 45.64616 | 8.72115 | 776 ft | 2 kts | 129° |
| 2026-05-08 17:19 | 45.64626 | 8.72099 | 776 ft | 2 kts | 140° |
| 2026-05-08 17:19 | 45.64638 | 8.72087 | 776 ft | 2 kts | 152° |
| 2026-05-08 17:20 | 45.64652 | 8.72078 | 776 ft | 2 kts | 164° |
| 2026-05-08 17:20 | 45.64660 | 8.72076 | 776 ft | 1 kts | 171° |
| 2026-05-08 17:20 | 45.64663 | 8.72075 | 776 ft | 0 kts | 170° |
| 2026-05-08 17:25 | 45.64660 | 8.72076 | 776 ft | 1 kts | 170° |
| 2026-05-08 17:25 | 45.64647 | 8.72079 | 776 ft | 3 kts | 170° |
| 2026-05-08 17:25 | 45.64643 | 8.72080 | 776 ft | 0 kts | 170° |
| 2026-05-08 17:32 | 45.64631 | 8.72083 | 776 ft | 4 kts | 170° |
| 2026-05-08 17:33 | 45.64588 | 8.72094 | 776 ft | 7 kts | 170° |
| 2026-05-08 17:33 | 45.64523 | 8.72110 | 776 ft | 11 kts | 170° |
| 2026-05-08 17:33 | 45.64446 | 8.72161 | 776 ft | 12 kts | 133° |
| 2026-05-08 17:33 | 45.64431 | 8.72283 | 776 ft | 13 kts | 80° |
| 2026-05-08 17:34 | 45.64433 | 8.72410 | 775 ft | 12 kts | 129° |
| 2026-05-08 17:34 | 45.64345 | 8.72449 | 776 ft | 13 kts | 169° |
| 2026-05-08 17:34 | 45.64249 | 8.72476 | 776 ft | 14 kts | 168° |
| 2026-05-08 17:34 | 45.64149 | 8.72504 | 776 ft | 14 kts | 170° |
| 2026-05-08 17:35 | 45.64048 | 8.72535 | 776 ft | 15 kts | 165° |
| 2026-05-08 17:35 | 45.63942 | 8.72568 | 775 ft | 16 kts | 169° |
| 2026-05-08 17:35 | 45.63830 | 8.72601 | 776 ft | 16 kts | 168° |
| 2026-05-08 17:35 | 45.63713 | 8.72633 | 775 ft | 17 kts | 169° |
| 2026-05-08 17:36 | 45.63592 | 8.72667 | 776 ft | 17 kts | 168° |
| 2026-05-08 17:36 | 45.63468 | 8.72701 | 776 ft | 18 kts | 169° |
| 2026-05-08 17:36 | 45.63342 | 8.72735 | 776 ft | 18 kts | 169° |
| 2026-05-08 17:36 | 45.63212 | 8.72771 | 776 ft | 19 kts | 169° |
| 2026-05-08 17:37 | 45.63080 | 8.72810 | 776 ft | 19 kts | 168° |
| 2026-05-08 17:37 | 45.62947 | 8.72847 | 776 ft | 19 kts | 169° |
| 2026-05-08 17:37 | 45.62812 | 8.72882 | 775 ft | 19 kts | 169° |
| 2026-05-08 17:37 | 45.62676 | 8.72920 | 775 ft | 20 kts | 169° |
| 2026-05-08 17:38 | 45.62539 | 8.72958 | 774 ft | 20 kts | 169° |
| 2026-05-08 17:38 | 45.62401 | 8.72996 | 774 ft | 20 kts | 169° |
| 2026-05-08 17:38 | 45.62262 | 8.73037 | 775 ft | 20 kts | 169° |
| 2026-05-08 17:38 | 45.62121 | 8.73071 | 775 ft | 20 kts | 169° |
| 2026-05-08 17:39 | 45.61981 | 8.73110 | 775 ft | 20 kts | 169° |
| 2026-05-08 17:39 | 45.61840 | 8.73149 | 775 ft | 20 kts | 169° |
| 2026-05-08 17:39 | 45.61733 | 8.73227 | 775 ft | 17 kts | 129° |
| 2026-05-08 17:39 | 45.61665 | 8.73372 | 775 ft | 17 kts | 124° |
| 2026-05-08 17:40 | 45.61630 | 8.73446 | 775 ft | 8 kts | 124° |
| 2026-05-08 17:40 | 45.61595 | 8.73525 | 775 ft | 10 kts | 113° |
| 2026-05-08 17:40 | 45.61589 | 8.73644 | 774 ft | 13 kts | 84° |
| 2026-05-08 17:40 | 45.61618 | 8.73726 | 775 ft | 9 kts | 339° |
| 2026-05-08 17:41 | 45.61683 | 8.73721 | 775 ft | 9 kts | 350° |
| 2026-05-08 17:41 | 45.61726 | 8.73709 | 775 ft | 3 kts | 349° |
| 2026-05-08 17:41 | 45.61817 | 8.73685 | 775 ft | 33 kts | 347° |
| 2026-05-08 17:41 | 45.62291 | 8.73553 | 775 ft | 103 kts | 350° |
| 2026-05-08 17:42 | 45.63197 | 8.73299 | 777 ft | 159 kts | 350° |
| 2026-05-08 17:42 | 45.64347 | 8.72994 | 1172 ft | 173 kts | 351° |
| 2026-05-08 17:42 | 45.65532 | 8.72853 | 1822 ft | 174 kts | 12° |
| 2026-05-08 17:42 | 45.66572 | 8.73615 | 2473 ft | 171 kts | 49° |
| 2026-05-08 17:43 | 45.67153 | 8.75050 | 2982 ft | 172 kts | 68° |
| 2026-05-08 17:43 | 45.67781 | 8.76567 | 3319 ft | 187 kts | 46° |
| 2026-05-08 17:43 | 45.68818 | 8.77799 | 3685 ft | 201 kts | 39° |
| 2026-05-08 17:43 | 45.69962 | 8.79057 | 4045 ft | 217 kts | 41° |
| 2026-05-08 17:44 | 45.71091 | 8.80607 | 4444 ft | 233 kts | 47° |
| 2026-05-08 17:44 | 45.72180 | 8.82342 | 5099 ft | 237 kts | 56° |
| 2026-05-08 17:44 | 45.72758 | 8.84512 | 5777 ft | 239 kts | 88° |
| 2026-05-08 17:44 | 45.72452 | 8.86800 | 6480 ft | 239 kts | 118° |
| 2026-05-08 17:45 | 45.71510 | 8.88754 | 7207 ft | 241 kts | 128° |
| 2026-05-08 17:45 | 45.70495 | 8.90658 | 7924 ft | 245 kts | 127° |
| 2026-05-08 17:45 | 45.69476 | 8.92602 | 8661 ft | 247 kts | 127° |
| 2026-05-08 17:45 | 45.68455 | 8.94578 | 9398 ft | 250 kts | 126° |
| 2026-05-08 17:46 | 45.67423 | 8.96595 | 10123 ft | 253 kts | 126° |
| 2026-05-08 17:46 | 45.66310 | 8.98550 | 10747 ft | 260 kts | 140° |
| 2026-05-08 17:46 | 45.64650 | 8.99700 | 11095 ft | 277 kts | 167° |
| 2026-05-08 17:46 | 45.62697 | 9.00163 | 11469 ft | 294 kts | 172° |
| 2026-05-08 17:47 | 45.60614 | 9.00557 | 11821 ft | 311 kts | 172° |
| 2026-05-08 17:47 | 45.58454 | 9.01016 | 12396 ft | 318 kts | 171° |
| 2026-05-08 17:47 | 45.56262 | 9.01536 | 13081 ft | 321 kts | 170° |
| 2026-05-08 17:47 | 45.54059 | 9.02095 | 13738 ft | 325 kts | 170° |
| 2026-05-08 17:48 | 45.51830 | 9.02685 | 14361 ft | 329 kts | 169° |
| 2026-05-08 17:48 | 45.49569 | 9.03299 | 14980 ft | 333 kts | 169° |
| 2026-05-08 17:48 | 45.47288 | 9.03929 | 15581 ft | 337 kts | 169° |
| 2026-05-08 17:48 | 45.44981 | 9.04570 | 16190 ft | 340 kts | 169° |
| 2026-05-08 17:49 | 45.42656 | 9.05220 | 16786 ft | 343 kts | 169° |
| 2026-05-08 17:49 | 45.40308 | 9.05877 | 17367 ft | 346 kts | 169° |
| 2026-05-08 17:49 | 45.37947 | 9.06540 | 17927 ft | 349 kts | 169° |
| 2026-05-08 17:49 | 45.35554 | 9.07211 | 18499 ft | 352 kts | 170° |
| 2026-05-08 17:50 | 45.33147 | 9.07888 | 19034 ft | 355 kts | 170° |
| 2026-05-08 17:50 | 45.30723 | 9.08567 | 19595 ft | 358 kts | 170° |
| 2026-05-08 17:50 | 45.28279 | 9.09252 | 20136 ft | 361 kts | 170° |
| 2026-05-08 17:50 | 45.25813 | 9.09940 | 20662 ft | 363 kts | 170° |
| 2026-05-08 17:51 | 45.23328 | 9.10636 | 21182 ft | 366 kts | 171° |
| 2026-05-08 17:51 | 45.20827 | 9.11332 | 21700 ft | 368 kts | 171° |
| 2026-05-08 17:51 | 45.18305 | 9.12037 | 22199 ft | 371 kts | 171° |
| 2026-05-08 17:51 | 45.15767 | 9.12744 | 22680 ft | 374 kts | 171° |
| 2026-05-08 17:52 | 45.13210 | 9.13457 | 23149 ft | 377 kts | 171° |
| 2026-05-08 17:52 | 45.10629 | 9.14175 | 23607 ft | 379 kts | 171° |
| 2026-05-08 17:52 | 45.05410 | 9.15624 | 24427 ft | 386 kts | 171° |
| 2026-05-08 17:53 | 45.02763 | 9.16362 | 24799 ft | 390 kts | 172° |
| 2026-05-08 17:53 | 45.00094 | 9.17100 | 25157 ft | 393 kts | 172° |
| 2026-05-08 17:53 | 44.97404 | 9.17845 | 25512 ft | 397 kts | 172° |
| 2026-05-08 17:53 | 44.94686 | 9.18599 | 25859 ft | 400 kts | 172° |
| 2026-05-08 17:54 | 44.91948 | 9.19355 | 26230 ft | 402 kts | 172° |
| 2026-05-08 17:54 | 44.89201 | 9.20114 | 26606 ft | 405 kts | 173° |
| 2026-05-08 17:54 | 44.86439 | 9.20876 | 26935 ft | 408 kts | 173° |
| 2026-05-08 17:54 | 44.83649 | 9.21646 | 27252 ft | 411 kts | 173° |
| 2026-05-08 17:55 | 44.80831 | 9.22421 | 27566 ft | 414 kts | 173° |
| 2026-05-08 17:55 | 44.77997 | 9.23199 | 27889 ft | 416 kts | 173° |
| 2026-05-08 17:55 | 44.75151 | 9.23981 | 28197 ft | 419 kts | 173° |
| 2026-05-08 17:55 | 44.72279 | 9.24771 | 28495 ft | 422 kts | 173° |
| 2026-05-08 17:56 | 44.69390 | 9.25564 | 28784 ft | 425 kts | 173° |
| 2026-05-08 17:56 | 44.66477 | 9.26361 | 29064 ft | 428 kts | 174° |
| 2026-05-08 17:56 | 44.63551 | 9.27163 | 29357 ft | 430 kts | 174° |
| 2026-05-08 17:56 | 44.60612 | 9.27966 | 29626 ft | 433 kts | 174° |
| 2026-05-08 17:57 | 44.57652 | 9.28775 | 29951 ft | 434 kts | 174° |
| 2026-05-08 17:57 | 44.54689 | 9.29585 | 30261 ft | 435 kts | 174° |
| 2026-05-08 17:57 | 44.51720 | 9.30395 | 30555 ft | 437 kts | 174° |
| 2026-05-08 17:57 | 44.48736 | 9.31207 | 30847 ft | 439 kts | 174° |
| 2026-05-08 17:58 | 44.45742 | 9.32024 | 31167 ft | 439 kts | 175° |
| 2026-05-08 17:58 | 44.42748 | 9.32837 | 31452 ft | 440 kts | 175° |
| 2026-05-08 17:58 | 44.39753 | 9.33649 | 31766 ft | 440 kts | 175° |
| 2026-05-08 17:58 | 44.36744 | 9.34466 | 32074 ft | 441 kts | 175° |
| 2026-05-08 17:59 | 44.33738 | 9.35280 | 32346 ft | 442 kts | 175° |
| 2026-05-08 17:59 | 44.30726 | 9.36093 | 32603 ft | 443 kts | 175° |
| 2026-05-08 17:59 | 44.27705 | 9.36910 | 32863 ft | 443 kts | 175° |
| 2026-05-08 17:59 | 44.24675 | 9.37729 | 33107 ft | 444 kts | 175° |
| 2026-05-08 18:00 | 44.21647 | 9.38544 | 33376 ft | 445 kts | 176° |
| 2026-05-08 18:00 | 44.15582 | 9.40178 | 33861 ft | 445 kts | 175° |
| 2026-05-08 18:00 | 44.12553 | 9.40991 | 34216 ft | 442 kts | 175° |
| 2026-05-08 18:01 | 44.09552 | 9.41799 | 34537 ft | 439 kts | 175° |
| 2026-05-08 18:01 | 44.06564 | 9.42601 | 34747 ft | 439 kts | 175° |
| 2026-05-08 18:01 | 44.03565 | 9.43405 | 34926 ft | 440 kts | 175° |
| 2026-05-08 18:01 | 44.00570 | 9.44206 | 35144 ft | 439 kts | 175° |
| 2026-05-08 18:02 | 43.97579 | 9.45006 | 35353 ft | 439 kts | 175° |
| 2026-05-08 18:02 | 43.94587 | 9.45803 | 35477 ft | 440 kts | 175° |
| 2026-05-08 18:02 | 43.91576 | 9.46605 | 35593 ft | 442 kts | 175° |
| 2026-05-08 18:02 | 43.88566 | 9.47408 | 35733 ft | 443 kts | 175° |
| 2026-05-08 18:03 | 43.85549 | 9.48213 | 35883 ft | 443 kts | 175° |
| 2026-05-08 18:03 | 43.82529 | 9.49019 | 36029 ft | 443 kts | 175° |
| 2026-05-08 18:03 | 43.79510 | 9.49822 | 36187 ft | 443 kts | 175° |
| 2026-05-08 18:03 | 43.76486 | 9.50626 | 36353 ft | 444 kts | 175° |
| 2026-05-08 18:04 | 43.73460 | 9.51429 | 36471 ft | 445 kts | 175° |
| 2026-05-08 18:04 | 43.71436 | 9.51965 | 36556 ft | 446 kts | 175° |
| 2026-05-08 18:04 | 43.68390 | 9.52772 | 36688 ft | 446 kts | 174° |
| 2026-05-08 18:04 | 43.65345 | 9.53578 | 36839 ft | 447 kts | 174° |
| 2026-05-08 18:05 | 43.62293 | 9.54385 | 36955 ft | 447 kts | 174° |
| 2026-05-08 18:05 | 43.59240 | 9.55191 | 36998 ft | 448 kts | 174° |
| 2026-05-08 18:05 | 43.53125 | 9.56805 | 37006 ft | 449 kts | 174° |
| 2026-05-08 18:06 | 43.47010 | 9.58416 | 37006 ft | 448 kts | 174° |
| 2026-05-08 18:06 | 43.40894 | 9.60022 | 37006 ft | 448 kts | 174° |
| 2026-05-08 18:07 | 43.34781 | 9.61624 | 37002 ft | 449 kts | 174° |
| 2026-05-08 18:07 | 43.28662 | 9.63224 | 36999 ft | 449 kts | 174° |
| 2026-05-08 18:08 | 43.22538 | 9.64824 | 37000 ft | 449 kts | 174° |
| 2026-05-08 18:08 | 43.16419 | 9.66419 | 37001 ft | 449 kts | 175° |
| 2026-05-08 18:09 | 43.10296 | 9.68010 | 37003 ft | 449 kts | 175° |
| 2026-05-08 18:09 | 43.04171 | 9.69600 | 36999 ft | 449 kts | 175° |
| 2026-05-08 18:10 | 42.98045 | 9.71185 | 36996 ft | 448 kts | 175° |
| 2026-05-08 18:10 | 42.91937 | 9.72766 | 36999 ft | 447 kts | 175° |
| 2026-05-08 18:11 | 42.85833 | 9.74339 | 37001 ft | 447 kts | 175° |
| 2026-05-08 18:11 | 42.79732 | 9.75908 | 36996 ft | 447 kts | 175° |
| 2026-05-08 18:12 | 42.73623 | 9.77477 | 36994 ft | 448 kts | 175° |
| 2026-05-08 18:12 | 42.67522 | 9.79041 | 37001 ft | 447 kts | 175° |
| 2026-05-08 18:13 | 42.61423 | 9.80602 | 37000 ft | 447 kts | 175° |
| 2026-05-08 18:13 | 42.55330 | 9.82157 | 37003 ft | 447 kts | 175° |
| 2026-05-08 18:14 | 42.49242 | 9.83708 | 36990 ft | 445 kts | 175° |
| 2026-05-08 18:14 | 42.46217 | 9.84481 | 36766 ft | 440 kts | 175° |
| 2026-05-08 18:14 | 42.43226 | 9.85243 | 36193 ft | 438 kts | 175° |
| 2026-05-08 18:15 | 42.40247 | 9.86000 | 35673 ft | 436 kts | 175° |
| 2026-05-08 18:15 | 42.37279 | 9.86752 | 35139 ft | 435 kts | 175° |
| 2026-05-08 18:15 | 42.34313 | 9.87503 | 34550 ft | 436 kts | 175° |
| 2026-05-08 18:15 | 42.31344 | 9.88252 | 33818 ft | 437 kts | 175° |
| 2026-05-08 18:16 | 42.28356 | 9.89004 | 33057 ft | 438 kts | 175° |
| 2026-05-08 18:16 | 42.25387 | 9.89754 | 32527 ft | 433 kts | 175° |
| 2026-05-08 18:16 | 42.22455 | 9.90496 | 31997 ft | 428 kts | 174° |
| 2026-05-08 18:16 | 42.19547 | 9.91232 | 31457 ft | 424 kts | 174° |
| 2026-05-08 18:17 | 42.16662 | 9.91961 | 30913 ft | 421 kts | 174° |
| 2026-05-08 18:17 | 42.13805 | 9.92682 | 30374 ft | 417 kts | 174° |
| 2026-05-08 18:17 | 42.10976 | 9.93392 | 29838 ft | 413 kts | 174° |
| 2026-05-08 18:17 | 42.08167 | 9.94099 | 29325 ft | 410 kts | 174° |
| 2026-05-08 18:18 | 42.05385 | 9.94799 | 28810 ft | 407 kts | 174° |
| 2026-05-08 18:18 | 42.02624 | 9.95492 | 28279 ft | 404 kts | 174° |
| 2026-05-08 18:18 | 41.99876 | 9.96180 | 27736 ft | 401 kts | 174° |
| 2026-05-08 18:18 | 41.97145 | 9.96862 | 27217 ft | 398 kts | 174° |
| 2026-05-08 18:19 | 41.94439 | 9.97540 | 26692 ft | 395 kts | 174° |
| 2026-05-08 18:19 | 41.91749 | 9.98212 | 26178 ft | 392 kts | 174° |
| 2026-05-08 18:19 | 41.89083 | 9.98879 | 25670 ft | 390 kts | 174° |
| 2026-05-08 18:19 | 41.86432 | 9.99543 | 25166 ft | 387 kts | 174° |
| 2026-05-08 18:20 | 41.83799 | 10.00199 | 24631 ft | 385 kts | 174° |
| 2026-05-08 18:20 | 41.81184 | 10.00851 | 24114 ft | 383 kts | 174° |
| 2026-05-08 18:20 | 41.78581 | 10.01501 | 23612 ft | 380 kts | 174° |
| 2026-05-08 18:20 | 41.75991 | 10.02145 | 23101 ft | 378 kts | 174° |
| 2026-05-08 18:21 | 41.73416 | 10.02784 | 22626 ft | 376 kts | 174° |
| 2026-05-08 18:21 | 41.70860 | 10.03418 | 22156 ft | 373 kts | 174° |
| 2026-05-08 18:21 | 41.68326 | 10.04048 | 21704 ft | 370 kts | 174° |
| 2026-05-08 18:21 | 41.65807 | 10.04673 | 21258 ft | 368 kts | 174° |
| 2026-05-08 18:22 | 41.63304 | 10.05292 | 20812 ft | 365 kts | 174° |
| 2026-05-08 18:22 | 41.60820 | 10.05904 | 20356 ft | 362 kts | 174° |
| 2026-05-08 18:22 | 41.59413 | 10.06254 | 20088 ft | 361 kts | 174° |
| 2026-05-08 18:24 | 41.58434 | 10.06496 | 19904 ft | 361 kts | 174° |
| 2026-05-08 18:24 | 41.55979 | 10.07104 | 19457 ft | 358 kts | 174° |
| 2026-05-08 18:24 | 41.53547 | 10.07706 | 19027 ft | 356 kts | 173° |
| 2026-05-08 18:25 | 41.52030 | 10.08081 | 18756 ft | 354 kts | 173° |
| 2026-05-08 18:41 | 41.51984 | 10.08092 | 18748 ft | 354 kts | 173° |
| 2026-05-08 18:41 | 41.49576 | 10.08689 | 18306 ft | 352 kts | 174° |
| 2026-05-08 18:41 | 41.47185 | 10.09281 | 17878 ft | 349 kts | 174° |
| 2026-05-08 18:42 | 41.44808 | 10.09866 | 17451 ft | 347 kts | 174° |
| 2026-05-08 18:42 | 41.42447 | 10.10450 | 17010 ft | 345 kts | 174° |
| 2026-05-08 18:42 | 41.40093 | 10.11028 | 16569 ft | 344 kts | 173° |
| 2026-05-08 18:42 | 41.37752 | 10.11603 | 16143 ft | 342 kts | 173° |
| 2026-05-08 18:43 | 41.35418 | 10.12174 | 15722 ft | 341 kts | 173° |
| 2026-05-08 18:43 | 41.33101 | 10.12745 | 15307 ft | 339 kts | 173° |
| 2026-05-08 18:43 | 41.30785 | 10.13315 | 14881 ft | 337 kts | 173° |
| 2026-05-08 18:43 | 41.28511 | 10.13873 | 14357 ft | 333 kts | 172° |
| 2026-05-08 18:44 | 41.26242 | 10.14427 | 13818 ft | 332 kts | 172° |
| 2026-05-08 18:44 | 41.23969 | 10.14774 | 13276 ft | 327 kts | 183° |
| 2026-05-08 18:44 | 41.21743 | 10.14459 | 12724 ft | 320 kts | 201° |
| 2026-05-08 18:44 | 41.19877 | 10.12998 | 12121 ft | 311 kts | 226° |
| 2026-05-08 18:45 | 41.18626 | 10.10720 | 11518 ft | 307 kts | 244° |
| 2026-05-08 18:45 | 41.17657 | 10.08204 | 10902 ft | 308 kts | 244° |
| 2026-05-08 18:45 | 41.16681 | 10.05675 | 10289 ft | 311 kts | 243° |
| 2026-05-08 18:45 | 41.15676 | 10.03131 | 9675 ft | 316 kts | 243° |
| 2026-05-08 18:46 | 41.14642 | 10.00554 | 9058 ft | 320 kts | 242° |
| 2026-05-08 18:46 | 41.13589 | 9.97955 | 8440 ft | 323 kts | 242° |
| 2026-05-08 18:46 | 41.12499 | 9.95350 | 7822 ft | 326 kts | 239° |
| 2026-05-08 18:46 | 41.11260 | 9.92830 | 7205 ft | 329 kts | 236° |
| 2026-05-08 18:47 | 41.09973 | 9.90325 | 6577 ft | 331 kts | 236° |
| 2026-05-08 18:47 | 41.08684 | 9.87814 | 5960 ft | 332 kts | 236° |
| 2026-05-08 18:47 | 41.07381 | 9.85301 | 5340 ft | 333 kts | 236° |
| 2026-05-08 18:47 | 41.06066 | 9.82784 | 4719 ft | 334 kts | 236° |
| 2026-05-08 18:48 | 41.04748 | 9.80264 | 4103 ft | 334 kts | 236° |
| 2026-05-08 18:48 | 41.03428 | 9.77741 | 3486 ft | 334 kts | 236° |
| 2026-05-08 18:48 | 41.02131 | 9.75265 | 3093 ft | 318 kts | 236° |
| 2026-05-08 18:48 | 41.00931 | 9.72980 | 2995 ft | 287 kts | 237° |
| 2026-05-08 18:49 | 40.99857 | 9.70929 | 2989 ft | 257 kts | 237° |
| 2026-05-08 18:49 | 40.98888 | 9.69046 | 2903 ft | 241 kts | 238° |
| 2026-05-08 18:49 | 40.97977 | 9.67248 | 2544 ft | 233 kts | 237° |
| 2026-05-08 18:49 | 40.97092 | 9.65540 | 2197 ft | 216 kts | 237° |
| 2026-05-08 18:50 | 40.96288 | 9.64014 | 1997 ft | 190 kts | 237° |
| 2026-05-08 18:50 | 40.95564 | 9.62642 | 1742 ft | 173 kts | 237° |
| 2026-05-08 18:50 | 40.94907 | 9.61390 | 1494 ft | 160 kts | 237° |
| 2026-05-08 18:50 | 40.94300 | 9.60233 | 1269 ft | 147 kts | 237° |
| 2026-05-08 18:51 | 40.93740 | 9.59164 | 1080 ft | 140 kts | 237° |
| 2026-05-08 18:51 | 40.93184 | 9.58103 | 920 ft | 140 kts | 236° |
| 2026-05-08 18:51 | 40.92626 | 9.57056 | 723 ft | 139 kts | 236° |
| 2026-05-08 18:51 | 40.92078 | 9.56008 | 544 ft | 139 kts | 237° |
| 2026-05-08 18:52 | 40.91530 | 9.54952 | 388 ft | 139 kts | 236° |
| 2026-05-08 18:52 | 40.90982 | 9.53901 | 209 ft | 139 kts | 235° |
| 2026-05-08 18:52 | 40.90436 | 9.52852 | 51 ft | 135 kts | 236° |
| 2026-05-08 18:52 | 40.90020 | 9.52054 | 49 ft | 63 kts | 236° |
| 2026-05-08 18:53 | 40.89836 | 9.51704 | 49 ft | 43 kts | 236° |
| 2026-05-08 18:53 | 40.89677 | 9.51407 | 49 ft | 19 kts | 234° |
| 2026-05-08 18:53 | 40.89629 | 9.51277 | 49 ft | 10 kts | 263° |
| 2026-05-08 18:53 | 40.89635 | 9.51179 | 49 ft | 11 kts | 288° |
| 2026-05-08 18:54 | 40.89664 | 9.51124 | 49 ft | 5 kts | 321° |
| 2026-05-08 18:54 | 40.89705 | 9.51108 | 49 ft | 6 kts | 6° |
| 2026-05-08 18:54 | 40.89750 | 9.51145 | 48 ft | 8 kts | 51° |
| 2026-05-08 18:54 | 40.89787 | 9.51215 | 49 ft | 9 kts | 56° |
| 2026-05-08 18:55 | 40.89879 | 9.51396 | 49 ft | 14 kts | 56° |
| 2026-05-08 18:55 | 40.89946 | 9.51499 | 49 ft | 15 kts | 25° |
| 2026-05-08 18:55 | 40.90037 | 9.51501 | 49 ft | 9 kts | 331° |
| 2026-05-08 18:56 | 40.90091 | 9.51508 | 48 ft | 9 kts | 45° |
| 2026-05-08 18:56 | 40.90132 | 9.51582 | 49 ft | 10 kts | 56° |
| 2026-05-08 18:56 | 40.90172 | 9.51651 | 49 ft | 4 kts | 21° |
| 2026-05-08 18:56 | 40.90202 | 9.51634 | 49 ft | 4 kts | 324° |
| 2026-05-08 18:57 | 40.90220 | 9.51617 | 49 ft | 2 kts | 326° |
| 2026-05-08 18:57 | 40.90220 | 9.51616 | 49 ft | 0 kts | 326° |